sensor_id;sensor_type;location;lat;lon;timestamp;P1;durP1;ratioP1;P2;durP2;ratioP2
53881;SDS011;39794;55.782;37.452;2023-05-16T00:00:49;13.48;;;4.88;;
53881;SDS011;39794;55.782;37.452;2023-05-16T00:03:19;19.42;;;5.30;;
53881;SDS011;39794;55.782;37.452;2023-05-16T00:05:48;17.45;;;6.80;;
53881;SDS011;39794;55.782;37.452;2023-05-16T00:08:17;19.75;;;7.47;;
53881;SDS011;39794;55.782;37.452;2023-05-16T00:10:46;17.00;;;6.93;;
53881;SDS011;39794;55.782;37.452;2023-05-16T00:13:14;19.55;;;6.50;;
53881;SDS011;39794;55.782;37.452;2023-05-16T00:15:47;14.50;;;5.50;;
53881;SDS011;39794;55.782;37.452;2023-05-16T00:18:17;8.80;;;4.38;;
53881;SDS011;39794;55.782;37.452;2023-05-16T00:20:48;17.48;;;4.93;;
53881;SDS011;39794;55.782;37.452;2023-05-16T00:23:19;9.88;;;4.78;;
53881;SDS011;39794;55.782;37.452;2023-05-16T00:25:48;14.98;;;5.43;;
53881;SDS011;39794;55.782;37.452;2023-05-16T00:28:17;8.50;;;4.45;;
53881;SDS011;39794;55.782;37.452;2023-05-16T00:30:45;10.90;;;4.85;;
53881;SDS011;39794;55.782;37.452;2023-05-16T00:33:15;13.27;;;5.32;;
53881;SDS011;39794;55.782;37.452;2023-05-16T00:35:43;15.10;;;5.05;;
53881;SDS011;39794;55.782;37.452;2023-05-16T00:38:12;11.35;;;4.63;;
53881;SDS011;39794;55.782;37.452;2023-05-16T00:40:44;13.80;;;5.07;;
53881;SDS011;39794;55.782;37.452;2023-05-16T00:43:13;14.15;;;5.00;;
53881;SDS011;39794;55.782;37.452;2023-05-16T00:45:42;13.63;;;4.80;;
53881;SDS011;39794;55.782;37.452;2023-05-16T00:48:11;13.15;;;4.85;;
53881;SDS011;39794;55.782;37.452;2023-05-16T00:50:40;11.98;;;5.05;;
53881;SDS011;39794;55.782;37.452;2023-05-16T00:53:08;15.50;;;5.07;;
53881;SDS011;39794;55.782;37.452;2023-05-16T00:55:37;14.10;;;5.25;;
53881;SDS011;39794;55.782;37.452;2023-05-16T00:58:08;17.00;;;4.95;;
53881;SDS011;39794;55.782;37.452;2023-05-16T01:00:37;13.80;;;5.07;;
53881;SDS011;39794;55.782;37.452;2023-05-16T01:03:05;16.30;;;5.70;;
53881;SDS011;39794;55.782;37.452;2023-05-16T01:05:34;18.38;;;5.38;;
53881;SDS011;39794;55.782;37.452;2023-05-16T01:08:03;15.73;;;5.88;;
53881;SDS011;39794;55.782;37.452;2023-05-16T01:10:34;10.65;;;4.88;;
53881;SDS011;39794;55.782;37.452;2023-05-16T01:13:10;15.38;;;5.97;;
53881;SDS011;39794;55.782;37.452;2023-05-16T01:18:13;22.58;;;6.25;;
53881;SDS011;39794;55.782;37.452;2023-05-16T01:20:48;12.25;;;5.45;;
53881;SDS011;39794;55.782;37.452;2023-05-16T01:23:22;12.10;;;5.38;;
53881;SDS011;39794;55.782;37.452;2023-05-16T01:26:12;17.85;;;6.00;;
53881;SDS011;39794;55.782;37.452;2023-05-16T01:28:43;16.13;;;5.72;;
53881;SDS011;39794;55.782;37.452;2023-05-16T01:31:13;20.20;;;6.80;;
53881;SDS011;39794;55.782;37.452;2023-05-16T01:33:43;14.98;;;5.57;;
53881;SDS011;39794;55.782;37.452;2023-05-16T01:36:18;16.10;;;5.97;;
53881;SDS011;39794;55.782;37.452;2023-05-16T01:39:00;20.60;;;5.70;;
53881;SDS011;39794;55.782;37.452;2023-05-16T01:41:36;21.80;;;6.40;;
53881;SDS011;39794;55.782;37.452;2023-05-16T01:44:10;15.00;;;6.50;;
53881;SDS011;39794;55.782;37.452;2023-05-16T01:46:44;17.85;;;6.38;;
53881;SDS011;39794;55.782;37.452;2023-05-16T01:49:16;15.13;;;6.03;;
53881;SDS011;39794;55.782;37.452;2023-05-16T01:51:49;14.68;;;5.75;;
53881;SDS011;39794;55.782;37.452;2023-05-16T01:54:23;14.35;;;5.63;;
53881;SDS011;39794;55.782;37.452;2023-05-16T01:56:55;16.73;;;7.40;;
53881;SDS011;39794;55.782;37.452;2023-05-16T01:59:24;13.80;;;5.57;;
53881;SDS011;39794;55.782;37.452;2023-05-16T02:01:53;12.20;;;5.82;;
53881;SDS011;39794;55.782;37.452;2023-05-16T02:04:25;10.77;;;5.28;;
53881;SDS011;39794;55.782;37.452;2023-05-16T02:06:53;15.15;;;6.65;;
53881;SDS011;39794;55.782;37.452;2023-05-16T02:09:22;12.20;;;5.05;;
53881;SDS011;39794;55.782;37.452;2023-05-16T02:11:51;11.30;;;5.05;;
53881;SDS011;39794;55.782;37.452;2023-05-16T02:14:22;13.07;;;5.45;;
53881;SDS011;39794;55.782;37.452;2023-05-16T02:16:52;14.00;;;5.22;;
53881;SDS011;39794;55.782;37.452;2023-05-16T02:19:21;13.30;;;5.47;;
53881;SDS011;39794;55.782;37.452;2023-05-16T02:21:49;17.88;;;5.63;;
53881;SDS011;39794;55.782;37.452;2023-05-16T02:24:19;10.23;;;4.57;;
53881;SDS011;39794;55.782;37.452;2023-05-16T02:26:48;17.30;;;6.05;;
53881;SDS011;39794;55.782;37.452;2023-05-16T02:29:17;15.07;;;6.68;;
53881;SDS011;39794;55.782;37.452;2023-05-16T02:31:47;13.77;;;6.25;;
53881;SDS011;39794;55.782;37.452;2023-05-16T02:34:18;16.70;;;6.15;;
53881;SDS011;39794;55.782;37.452;2023-05-16T02:36:46;15.65;;;6.43;;
53881;SDS011;39794;55.782;37.452;2023-05-16T02:39:15;14.88;;;6.40;;
53881;SDS011;39794;55.782;37.452;2023-05-16T02:41:44;16.55;;;6.95;;
53881;SDS011;39794;55.782;37.452;2023-05-16T02:44:16;14.50;;;6.28;;
53881;SDS011;39794;55.782;37.452;2023-05-16T02:46:44;13.02;;;6.10;;
53881;SDS011;39794;55.782;37.452;2023-05-16T02:49:15;17.38;;;6.15;;
53881;SDS011;39794;55.782;37.452;2023-05-16T02:51:44;17.55;;;6.05;;
53881;SDS011;39794;55.782;37.452;2023-05-16T02:54:13;20.70;;;7.30;;
53881;SDS011;39794;55.782;37.452;2023-05-16T02:56:41;18.23;;;6.75;;
53881;SDS011;39794;55.782;37.452;2023-05-16T02:59:10;18.52;;;6.30;;
53881;SDS011;39794;55.782;37.452;2023-05-16T03:01:39;16.08;;;6.30;;
53881;SDS011;39794;55.782;37.452;2023-05-16T03:04:08;25.50;;;7.68;;
53881;SDS011;39794;55.782;37.452;2023-05-16T03:06:38;16.20;;;6.35;;
53881;SDS011;39794;55.782;37.452;2023-05-16T03:09:07;15.55;;;6.68;;
53881;SDS011;39794;55.782;37.452;2023-05-16T03:11:35;19.35;;;6.70;;
53881;SDS011;39794;55.782;37.452;2023-05-16T03:14:04;23.60;;;6.57;;
53881;SDS011;39794;55.782;37.452;2023-05-16T03:16:33;23.27;;;6.18;;
53881;SDS011;39794;55.782;37.452;2023-05-16T03:19:02;21.05;;;6.72;;
53881;SDS011;39794;55.782;37.452;2023-05-16T03:21:32;20.95;;;6.88;;
53881;SDS011;39794;55.782;37.452;2023-05-16T03:24:02;23.63;;;6.03;;
53881;SDS011;39794;55.782;37.452;2023-05-16T03:26:31;19.52;;;6.63;;
53881;SDS011;39794;55.782;37.452;2023-05-16T03:29:00;23.10;;;7.03;;
53881;SDS011;39794;55.782;37.452;2023-05-16T03:31:29;12.63;;;5.20;;
53881;SDS011;39794;55.782;37.452;2023-05-16T03:33:58;15.18;;;5.03;;
53881;SDS011;39794;55.782;37.452;2023-05-16T03:36:27;20.48;;;5.38;;
53881;SDS011;39794;55.782;37.452;2023-05-16T03:38:56;24.52;;;5.47;;
53881;SDS011;39794;55.782;37.452;2023-05-16T03:41:26;16.30;;;6.43;;
53881;SDS011;39794;55.782;37.452;2023-05-16T03:43:55;15.18;;;4.60;;
53881;SDS011;39794;55.782;37.452;2023-05-16T03:46:23;16.65;;;5.65;;
53881;SDS011;39794;55.782;37.452;2023-05-16T03:48:52;18.33;;;5.38;;
53881;SDS011;39794;55.782;37.452;2023-05-16T03:51:21;10.15;;;4.65;;
53881;SDS011;39794;55.782;37.452;2023-05-16T03:53:49;14.05;;;5.07;;
53881;SDS011;39794;55.782;37.452;2023-05-16T03:56:17;18.23;;;5.40;;
53881;SDS011;39794;55.782;37.452;2023-05-16T03:58:48;14.00;;;4.18;;
53881;SDS011;39794;55.782;37.452;2023-05-16T04:01:17;9.93;;;4.32;;
53881;SDS011;39794;55.782;37.452;2023-05-16T04:03:45;9.75;;;4.30;;
53881;SDS011;39794;55.782;37.452;2023-05-16T04:06:17;9.73;;;4.43;;
53881;SDS011;39794;55.782;37.452;2023-05-16T04:08:45;9.27;;;4.22;;
53881;SDS011;39794;55.782;37.452;2023-05-16T04:11:14;12.88;;;5.00;;
53881;SDS011;39794;55.782;37.452;2023-05-16T04:13:43;13.88;;;3.95;;
53881;SDS011;39794;55.782;37.452;2023-05-16T04:16:13;8.90;;;3.95;;
53881;SDS011;39794;55.782;37.452;2023-05-16T04:18:41;14.32;;;4.40;;
53881;SDS011;39794;55.782;37.452;2023-05-16T04:21:10;15.88;;;4.07;;
53881;SDS011;39794;55.782;37.452;2023-05-16T04:23:41;13.82;;;3.88;;
53881;SDS011;39794;55.782;37.452;2023-05-16T04:26:09;9.63;;;3.83;;
53881;SDS011;39794;55.782;37.452;2023-05-16T04:28:38;8.43;;;3.88;;
53881;SDS011;39794;55.782;37.452;2023-05-16T04:31:07;13.35;;;4.00;;
53881;SDS011;39794;55.782;37.452;2023-05-16T04:33:38;10.55;;;4.07;;
53881;SDS011;39794;55.782;37.452;2023-05-16T04:36:07;16.42;;;4.80;;
53881;SDS011;39794;55.782;37.452;2023-05-16T04:38:35;10.45;;;4.07;;
53881;SDS011;39794;55.782;37.452;2023-05-16T04:41:04;12.18;;;3.88;;
53881;SDS011;39794;55.782;37.452;2023-05-16T04:43:34;8.82;;;3.35;;
53881;SDS011;39794;55.782;37.452;2023-05-16T04:46:03;7.30;;;2.55;;
53881;SDS011;39794;55.782;37.452;2023-05-16T04:48:33;7.20;;;2.60;;
53881;SDS011;39794;55.782;37.452;2023-05-16T04:51:03;9.73;;;2.33;;
53881;SDS011;39794;55.782;37.452;2023-05-16T04:53:32;7.97;;;2.30;;
53881;SDS011;39794;55.782;37.452;2023-05-16T04:56:01;5.50;;;1.95;;
53881;SDS011;39794;55.782;37.452;2023-05-16T04:58:31;4.57;;;1.60;;
53881;SDS011;39794;55.782;37.452;2023-05-16T05:01:00;5.18;;;2.05;;
53881;SDS011;39794;55.782;37.452;2023-05-16T05:03:31;4.20;;;1.77;;
53881;SDS011;39794;55.782;37.452;2023-05-16T05:05:59;4.72;;;1.80;;
53881;SDS011;39794;55.782;37.452;2023-05-16T05:08:29;8.38;;;1.88;;
53881;SDS011;39794;55.782;37.452;2023-05-16T05:10:58;2.92;;;1.50;;
53881;SDS011;39794;55.782;37.452;2023-05-16T05:13:27;4.20;;;2.10;;
53881;SDS011;39794;55.782;37.452;2023-05-16T05:15:55;5.90;;;2.20;;
53881;SDS011;39794;55.782;37.452;2023-05-16T05:18:24;7.03;;;2.35;;
53881;SDS011;39794;55.782;37.452;2023-05-16T05:20:55;4.88;;;1.90;;
53881;SDS011;39794;55.782;37.452;2023-05-16T05:23:26;7.95;;;1.90;;
53881;SDS011;39794;55.782;37.452;2023-05-16T05:25:57;5.45;;;2.15;;
53881;SDS011;39794;55.782;37.452;2023-05-16T05:28:25;3.85;;;1.80;;
53881;SDS011;39794;55.782;37.452;2023-05-16T05:30:54;2.70;;;1.58;;
53881;SDS011;39794;55.782;37.452;2023-05-16T05:33:25;4.20;;;1.60;;
53881;SDS011;39794;55.782;37.452;2023-05-16T05:35:57;8.10;;;1.73;;
53881;SDS011;39794;55.782;37.452;2023-05-16T05:38:29;2.40;;;1.50;;
53881;SDS011;39794;55.782;37.452;2023-05-16T05:40:59;3.85;;;1.30;;
53881;SDS011;39794;55.782;37.452;2023-05-16T05:43:27;5.90;;;1.40;;
53881;SDS011;39794;55.782;37.452;2023-05-16T05:45:56;3.42;;;1.52;;
53881;SDS011;39794;55.782;37.452;2023-05-16T05:48:24;6.90;;;1.40;;
53881;SDS011;39794;55.782;37.452;2023-05-16T05:50:54;5.43;;;1.65;;
53881;SDS011;39794;55.782;37.452;2023-05-16T05:53:23;5.28;;;1.40;;
53881;SDS011;39794;55.782;37.452;2023-05-16T05:55:52;5.35;;;1.27;;
53881;SDS011;39794;55.782;37.452;2023-05-16T05:58:22;3.40;;;1.23;;
53881;SDS011;39794;55.782;37.452;2023-05-16T06:00:50;2.95;;;1.38;;
53881;SDS011;39794;55.782;37.452;2023-05-16T06:03:19;5.90;;;1.20;;
53881;SDS011;39794;55.782;37.452;2023-05-16T06:05:48;3.97;;;1.30;;
53881;SDS011;39794;55.782;37.452;2023-05-16T06:08:16;2.38;;;1.35;;
53881;SDS011;39794;55.782;37.452;2023-05-16T06:10:46;4.70;;;1.40;;
53881;SDS011;39794;55.782;37.452;2023-05-16T06:13:14;6.63;;;1.33;;
53881;SDS011;39794;55.782;37.452;2023-05-16T06:15:49;2.58;;;1.38;;
53881;SDS011;39794;55.782;37.452;2023-05-16T06:18:19;2.38;;;1.65;;
53881;SDS011;39794;55.782;37.452;2023-05-16T06:20:48;5.97;;;1.73;;
53881;SDS011;39794;55.782;37.452;2023-05-16T06:23:18;3.85;;;1.30;;
53881;SDS011;39794;55.782;37.452;2023-05-16T06:25:47;5.20;;;1.20;;
53881;SDS011;39794;55.782;37.452;2023-05-16T06:28:15;4.65;;;1.48;;
53881;SDS011;39794;55.782;37.452;2023-05-16T06:30:44;6.47;;;1.70;;
53881;SDS011;39794;55.782;37.452;2023-05-16T06:33:15;13.88;;;1.55;;
53881;SDS011;39794;55.782;37.452;2023-05-16T06:35:43;3.42;;;1.10;;
53881;SDS011;39794;55.782;37.452;2023-05-16T06:38:12;8.93;;;1.30;;
53881;SDS011;39794;55.782;37.452;2023-05-16T06:40:40;3.38;;;1.20;;
53881;SDS011;39794;55.782;37.452;2023-05-16T06:43:09;5.43;;;1.20;;
53881;SDS011;39794;55.782;37.452;2023-05-16T06:45:39;4.57;;;1.10;;
53881;SDS011;39794;55.782;37.452;2023-05-16T06:48:07;11.05;;;1.58;;
53881;SDS011;39794;55.782;37.452;2023-05-16T06:50:37;5.85;;;1.05;;
53881;SDS011;39794;55.782;37.452;2023-05-16T06:53:09;6.82;;;1.40;;
53881;SDS011;39794;55.782;37.452;2023-05-16T06:55:38;4.63;;;1.40;;
53881;SDS011;39794;55.782;37.452;2023-05-16T06:58:10;3.50;;;1.50;;
53881;SDS011;39794;55.782;37.452;2023-05-16T07:00:38;6.90;;;1.10;;
53881;SDS011;39794;55.782;37.452;2023-05-16T07:03:07;4.85;;;1.30;;
53881;SDS011;39794;55.782;37.452;2023-05-16T07:05:37;4.25;;;1.63;;
53881;SDS011;39794;55.782;37.452;2023-05-16T07:08:07;4.45;;;1.20;;
53881;SDS011;39794;55.782;37.452;2023-05-16T07:10:38;3.53;;;1.23;;
53881;SDS011;39794;55.782;37.452;2023-05-16T07:13:07;5.15;;;0.98;;
53881;SDS011;39794;55.782;37.452;2023-05-16T07:15:35;3.28;;;1.00;;
53881;SDS011;39794;55.782;37.452;2023-05-16T07:18:10;7.28;;;1.15;;
53881;SDS011;39794;55.782;37.452;2023-05-16T07:20:40;4.75;;;1.40;;
53881;SDS011;39794;55.782;37.452;2023-05-16T07:23:09;2.45;;;0.90;;
53881;SDS011;39794;55.782;37.452;2023-05-16T07:25:37;2.75;;;0.85;;
53881;SDS011;39794;55.782;37.452;2023-05-16T07:28:06;6.15;;;2.50;;
53881;SDS011;39794;55.782;37.452;2023-05-16T07:30:37;6.22;;;1.00;;
53881;SDS011;39794;55.782;37.452;2023-05-16T07:33:06;1.48;;;0.90;;
53881;SDS011;39794;55.782;37.452;2023-05-16T07:35:34;3.13;;;0.82;;
53881;SDS011;39794;55.782;37.452;2023-05-16T07:38:04;5.00;;;1.00;;
53881;SDS011;39794;55.782;37.452;2023-05-16T07:40:36;2.28;;;0.73;;
53881;SDS011;39794;55.782;37.452;2023-05-16T07:43:04;3.00;;;0.75;;
53881;SDS011;39794;55.782;37.452;2023-05-16T07:45:35;2.33;;;0.70;;
53881;SDS011;39794;55.782;37.452;2023-05-16T07:48:04;11.52;;;1.27;;
53881;SDS011;39794;55.782;37.452;2023-05-16T07:50:33;7.05;;;1.02;;
53881;SDS011;39794;55.782;37.452;2023-05-16T07:53:01;9.40;;;1.30;;
53881;SDS011;39794;55.782;37.452;2023-05-16T07:55:31;4.00;;;1.25;;
53881;SDS011;39794;55.782;37.452;2023-05-16T07:58:00;4.93;;;1.10;;
53881;SDS011;39794;55.782;37.452;2023-05-16T08:00:28;4.93;;;0.88;;
53881;SDS011;39794;55.782;37.452;2023-05-16T08:02:57;8.65;;;1.08;;
53881;SDS011;39794;55.782;37.452;2023-05-16T08:05:26;2.42;;;1.08;;
53881;SDS011;39794;55.782;37.452;2023-05-16T08:07:55;3.92;;;1.23;;
53881;SDS011;39794;55.782;37.452;2023-05-16T08:10:24;6.07;;;0.88;;
53881;SDS011;39794;55.782;37.452;2023-05-16T08:12:54;2.55;;;0.93;;
53881;SDS011;39794;55.782;37.452;2023-05-16T08:15:23;3.70;;;1.00;;
53881;SDS011;39794;55.782;37.452;2023-05-16T08:17:55;6.40;;;1.10;;
53881;SDS011;39794;55.782;37.452;2023-05-16T08:20:24;6.88;;;1.45;;
53881;SDS011;39794;55.782;37.452;2023-05-16T08:22:54;5.18;;;1.10;;
53881;SDS011;39794;55.782;37.452;2023-05-16T08:25:22;5.63;;;1.23;;
53881;SDS011;39794;55.782;37.452;2023-05-16T08:27:51;5.43;;;1.05;;
53881;SDS011;39794;55.782;37.452;2023-05-16T08:30:21;3.38;;;0.80;;
53881;SDS011;39794;55.782;37.452;2023-05-16T08:32:51;7.80;;;1.40;;
53881;SDS011;39794;55.782;37.452;2023-05-16T08:35:20;3.67;;;1.40;;
53881;SDS011;39794;55.782;37.452;2023-05-16T08:37:48;5.75;;;1.00;;
53881;SDS011;39794;55.782;37.452;2023-05-16T08:40:17;8.02;;;1.00;;
53881;SDS011;39794;55.782;37.452;2023-05-16T08:42:46;2.33;;;0.90;;
53881;SDS011;39794;55.782;37.452;2023-05-16T08:45:15;2.97;;;1.10;;
53881;SDS011;39794;55.782;37.452;2023-05-16T08:47:48;3.08;;;1.02;;
53881;SDS011;39794;55.782;37.452;2023-05-16T08:50:17;3.15;;;0.80;;
53881;SDS011;39794;55.782;37.452;2023-05-16T08:52:46;1.95;;;0.70;;
53881;SDS011;39794;55.782;37.452;2023-05-16T08:55:15;4.00;;;0.82;;
53881;SDS011;39794;55.782;37.452;2023-05-16T08:57:48;3.03;;;1.05;;
53881;SDS011;39794;55.782;37.452;2023-05-16T09:00:17;2.83;;;0.95;;
53881;SDS011;39794;55.782;37.452;2023-05-16T09:02:50;4.07;;;0.88;;
53881;SDS011;39794;55.782;37.452;2023-05-16T09:05:18;1.23;;;0.55;;
53881;SDS011;39794;55.782;37.452;2023-05-16T09:07:47;1.05;;;0.77;;
53881;SDS011;39794;55.782;37.452;2023-05-16T09:10:16;2.95;;;0.98;;
53881;SDS011;39794;55.782;37.452;2023-05-16T09:12:45;2.80;;;0.95;;
53881;SDS011;39794;55.782;37.452;2023-05-16T09:15:16;4.45;;;0.90;;
53881;SDS011;39794;55.782;37.452;2023-05-16T09:17:45;3.17;;;0.90;;
53881;SDS011;39794;55.782;37.452;2023-05-16T09:20:17;7.00;;;0.90;;
53881;SDS011;39794;55.782;37.452;2023-05-16T09:22:51;2.38;;;1.00;;
53881;SDS011;39794;55.782;37.452;2023-05-16T09:25:21;2.20;;;0.93;;
53881;SDS011;39794;55.782;37.452;2023-05-16T09:27:53;5.35;;;1.20;;
53881;SDS011;39794;55.782;37.452;2023-05-16T09:30:26;5.43;;;0.80;;
53881;SDS011;39794;55.782;37.452;2023-05-16T09:32:56;8.50;;;0.95;;
53881;SDS011;39794;55.782;37.452;2023-05-16T09:35:26;2.40;;;0.80;;
53881;SDS011;39794;55.782;37.452;2023-05-16T09:37:58;2.63;;;0.85;;
53881;SDS011;39794;55.782;37.452;2023-05-16T09:40:27;3.00;;;0.70;;
53881;SDS011;39794;55.782;37.452;2023-05-16T09:43:01;5.20;;;1.00;;
53881;SDS011;39794;55.782;37.452;2023-05-16T09:45:34;2.92;;;0.70;;
53881;SDS011;39794;55.782;37.452;2023-05-16T09:48:06;5.03;;;0.90;;
53881;SDS011;39794;55.782;37.452;2023-05-16T09:50:37;6.35;;;1.00;;
53881;SDS011;39794;55.782;37.452;2023-05-16T09:53:05;1.77;;;1.00;;
53881;SDS011;39794;55.782;37.452;2023-05-16T09:55:34;1.67;;;0.80;;
53881;SDS011;39794;55.782;37.452;2023-05-16T09:58:03;2.55;;;0.80;;
53881;SDS011;39794;55.782;37.452;2023-05-16T10:00:32;1.80;;;0.80;;
53881;SDS011;39794;55.782;37.452;2023-05-16T10:03:01;13.23;;;1.40;;
53881;SDS011;39794;55.782;37.452;2023-05-16T10:05:32;4.10;;;1.45;;
53881;SDS011;39794;55.782;37.452;2023-05-16T10:08:03;2.88;;;1.00;;
53881;SDS011;39794;55.782;37.452;2023-05-16T10:10:35;4.05;;;1.02;;
53881;SDS011;39794;55.782;37.452;2023-05-16T10:13:05;8.75;;;1.30;;
53881;SDS011;39794;55.782;37.452;2023-05-16T10:15:35;2.58;;;0.73;;
53881;SDS011;39794;55.782;37.452;2023-05-16T10:18:07;1.70;;;0.60;;
53881;SDS011;39794;55.782;37.452;2023-05-16T10:20:40;3.58;;;0.80;;
53881;SDS011;39794;55.782;37.452;2023-05-16T10:23:12;3.33;;;1.15;;
53881;SDS011;39794;55.782;37.452;2023-05-16T10:25:45;5.03;;;0.95;;
53881;SDS011;39794;55.782;37.452;2023-05-16T10:28:14;1.63;;;0.60;;
53881;SDS011;39794;55.782;37.452;2023-05-16T10:30:46;3.35;;;0.82;;
53881;SDS011;39794;55.782;37.452;2023-05-16T10:33:16;13.10;;;1.15;;
53881;SDS011;39794;55.782;37.452;2023-05-16T10:35:45;8.27;;;0.90;;
53881;SDS011;39794;55.782;37.452;2023-05-16T10:38:18;4.88;;;0.90;;
53881;SDS011;39794;55.782;37.452;2023-05-16T10:40:48;1.02;;;0.60;;
53881;SDS011;39794;55.782;37.452;2023-05-16T10:43:22;3.55;;;2.25;;
53881;SDS011;39794;55.782;37.452;2023-05-16T10:45:56;2.90;;;0.80;;
53881;SDS011;39794;55.782;37.452;2023-05-16T10:48:28;2.70;;;0.88;;
53881;SDS011;39794;55.782;37.452;2023-05-16T10:50:57;3.10;;;0.57;;
53881;SDS011;39794;55.782;37.452;2023-05-16T10:53:31;7.07;;;0.70;;
53881;SDS011;39794;55.782;37.452;2023-05-16T10:56:05;8.98;;;1.48;;
53881;SDS011;39794;55.782;37.452;2023-05-16T10:58:41;2.22;;;0.50;;
53881;SDS011;39794;55.782;37.452;2023-05-16T11:01:21;7.15;;;1.13;;
53881;SDS011;39794;55.782;37.452;2023-05-16T11:04:04;4.22;;;0.98;;
53881;SDS011;39794;55.782;37.452;2023-05-16T11:06:44;3.63;;;0.50;;
53881;SDS011;39794;55.782;37.452;2023-05-16T11:09:20;4.45;;;1.10;;
53881;SDS011;39794;55.782;37.452;2023-05-16T11:12:00;6.40;;;1.13;;
53881;SDS011;39794;55.782;37.452;2023-05-16T11:14:37;3.53;;;0.70;;
53881;SDS011;39794;55.782;37.452;2023-05-16T11:17:09;3.20;;;1.08;;
53881;SDS011;39794;55.782;37.452;2023-05-16T11:19:39;3.63;;;0.50;;
53881;SDS011;39794;55.782;37.452;2023-05-16T11:22:10;6.22;;;0.60;;
53881;SDS011;39794;55.782;37.452;2023-05-16T11:24:52;5.95;;;0.90;;
53881;SDS011;39794;55.782;37.452;2023-05-16T11:27:25;2.38;;;0.70;;
53881;SDS011;39794;55.782;37.452;2023-05-16T11:29:55;4.65;;;1.00;;
53881;SDS011;39794;55.782;37.452;2023-05-16T11:32:32;2.30;;;0.80;;
53881;SDS011;39794;55.782;37.452;2023-05-16T11:35:02;2.35;;;0.82;;
53881;SDS011;39794;55.782;37.452;2023-05-16T11:37:32;4.80;;;0.70;;
53881;SDS011;39794;55.782;37.452;2023-05-16T11:40:04;4.05;;;0.60;;
53881;SDS011;39794;55.782;37.452;2023-05-16T11:42:37;4.25;;;0.88;;
53881;SDS011;39794;55.782;37.452;2023-05-16T11:45:08;4.97;;;0.95;;
53881;SDS011;39794;55.782;37.452;2023-05-16T11:47:42;5.78;;;1.00;;
53881;SDS011;39794;55.782;37.452;2023-05-16T11:50:15;3.40;;;0.73;;
53881;SDS011;39794;55.782;37.452;2023-05-16T11:52:46;2.60;;;0.75;;
53881;SDS011;39794;55.782;37.452;2023-05-16T11:55:18;2.42;;;0.70;;
53881;SDS011;39794;55.782;37.452;2023-05-16T11:58:06;3.45;;;1.00;;
53881;SDS011;39794;55.782;37.452;2023-05-16T12:00:35;2.30;;;0.80;;
53881;SDS011;39794;55.782;37.452;2023-05-16T12:03:04;4.05;;;1.30;;
53881;SDS011;39794;55.782;37.452;2023-05-16T12:05:34;5.03;;;0.90;;
53881;SDS011;39794;55.782;37.452;2023-05-16T12:08:02;6.18;;;1.13;;
53881;SDS011;39794;55.782;37.452;2023-05-16T12:10:33;3.85;;;1.17;;
53881;SDS011;39794;55.782;37.452;2023-05-16T12:13:02;4.97;;;0.95;;
53881;SDS011;39794;55.782;37.452;2023-05-16T12:15:31;5.78;;;0.70;;
53881;SDS011;39794;55.782;37.452;2023-05-16T12:18:00;4.78;;;0.77;;
53881;SDS011;39794;55.782;37.452;2023-05-16T12:20:29;3.10;;;0.73;;
53881;SDS011;39794;55.782;37.452;2023-05-16T12:22:58;2.20;;;0.70;;
53881;SDS011;39794;55.782;37.452;2023-05-16T12:25:27;2.17;;;0.80;;
53881;SDS011;39794;55.782;37.452;2023-05-16T12:28:00;4.00;;;0.77;;
53881;SDS011;39794;55.782;37.452;2023-05-16T12:30:30;4.00;;;0.75;;
53881;SDS011;39794;55.782;37.452;2023-05-16T12:33:00;2.28;;;0.70;;
53881;SDS011;39794;55.782;37.452;2023-05-16T12:35:34;7.82;;;0.95;;
53881;SDS011;39794;55.782;37.452;2023-05-16T12:38:05;3.90;;;1.00;;
53881;SDS011;39794;55.782;37.452;2023-05-16T12:40:35;5.38;;;0.70;;
53881;SDS011;39794;55.782;37.452;2023-05-16T12:43:13;4.18;;;0.80;;
53881;SDS011;39794;55.782;37.452;2023-05-16T12:45:48;5.00;;;1.08;;
53881;SDS011;39794;55.782;37.452;2023-05-16T12:48:19;6.95;;;1.23;;
53881;SDS011;39794;55.782;37.452;2023-05-16T12:50:48;4.50;;;0.70;;
53881;SDS011;39794;55.782;37.452;2023-05-16T12:53:20;10.10;;;1.00;;
53881;SDS011;39794;55.782;37.452;2023-05-16T12:58:20;3.35;;;0.93;;
53881;SDS011;39794;55.782;37.452;2023-05-16T13:00:52;3.15;;;0.60;;
53881;SDS011;39794;55.782;37.452;2023-05-16T13:03:20;2.50;;;0.82;;
53881;SDS011;39794;55.782;37.452;2023-05-16T13:05:51;4.82;;;0.80;;
53881;SDS011;39794;55.782;37.452;2023-05-16T13:08:19;1.90;;;0.60;;
53881;SDS011;39794;55.782;37.452;2023-05-16T13:10:48;2.35;;;0.60;;
53881;SDS011;39794;55.782;37.452;2023-05-16T13:13:17;4.03;;;0.63;;
53881;SDS011;39794;55.782;37.452;2023-05-16T13:16:03;1.25;;;0.70;;
53881;SDS011;39794;55.782;37.452;2023-05-16T13:18:32;6.18;;;0.90;;
53881;SDS011;39794;55.782;37.452;2023-05-16T13:21:02;7.00;;;1.25;;
53881;SDS011;39794;55.782;37.452;2023-05-16T13:23:31;4.82;;;0.90;;
53881;SDS011;39794;55.782;37.452;2023-05-16T13:25:59;1.25;;;0.70;;
53881;SDS011;39794;55.782;37.452;2023-05-16T13:28:28;3.03;;;0.70;;
53881;SDS011;39794;55.782;37.452;2023-05-16T13:30:58;4.45;;;0.90;;
53881;SDS011;39794;55.782;37.452;2023-05-16T13:33:28;5.88;;;1.05;;
53881;SDS011;39794;55.782;37.452;2023-05-16T13:35:58;16.80;;;1.65;;
53881;SDS011;39794;55.782;37.452;2023-05-16T13:38:27;4.95;;;1.00;;
53881;SDS011;39794;55.782;37.452;2023-05-16T13:40:56;5.55;;;0.70;;
53881;SDS011;39794;55.782;37.452;2023-05-16T13:43:25;4.00;;;0.68;;
53881;SDS011;39794;55.782;37.452;2023-05-16T13:45:54;1.80;;;1.00;;
53881;SDS011;39794;55.782;37.452;2023-05-16T13:48:23;1.13;;;0.60;;
53881;SDS011;39794;55.782;37.452;2023-05-16T13:50:53;5.78;;;0.68;;
53881;SDS011;39794;55.782;37.452;2023-05-16T13:53:22;3.33;;;0.77;;
53881;SDS011;39794;55.782;37.452;2023-05-16T13:55:51;4.18;;;1.08;;
53881;SDS011;39794;55.782;37.452;2023-05-16T13:58:20;5.47;;;0.90;;
53881;SDS011;39794;55.782;37.452;2023-05-16T14:00:49;2.42;;;0.73;;
53881;SDS011;39794;55.782;37.452;2023-05-16T14:03:20;5.28;;;0.80;;
53881;SDS011;39794;55.782;37.452;2023-05-16T14:05:50;4.38;;;0.70;;
53881;SDS011;39794;55.782;37.452;2023-05-16T14:08:20;3.97;;;0.73;;
53881;SDS011;39794;55.782;37.452;2023-05-16T14:10:48;4.10;;;0.70;;
53881;SDS011;39794;55.782;37.452;2023-05-16T14:13:17;2.63;;;0.70;;
53881;SDS011;39794;55.782;37.452;2023-05-16T14:15:46;4.88;;;0.88;;
53881;SDS011;39794;55.782;37.452;2023-05-16T14:18:15;3.88;;;0.90;;
53881;SDS011;39794;55.782;37.452;2023-05-16T14:20:46;4.13;;;0.98;;
53881;SDS011;39794;55.782;37.452;2023-05-16T14:23:16;8.10;;;0.85;;
53881;SDS011;39794;55.782;37.452;2023-05-16T14:25:46;3.78;;;1.38;;
53881;SDS011;39794;55.782;37.452;2023-05-16T14:28:15;8.40;;;1.00;;
53881;SDS011;39794;55.782;37.452;2023-05-16T14:30:44;3.50;;;0.98;;
53881;SDS011;39794;55.782;37.452;2023-05-16T14:33:14;5.88;;;0.80;;
53881;SDS011;39794;55.782;37.452;2023-05-16T14:35:42;4.07;;;0.90;;
53881;SDS011;39794;55.782;37.452;2023-05-16T14:38:11;5.55;;;1.50;;
53881;SDS011;39794;55.782;37.452;2023-05-16T14:40:42;6.15;;;1.27;;
53881;SDS011;39794;55.782;37.452;2023-05-16T14:43:11;1.67;;;0.95;;
53881;SDS011;39794;55.782;37.452;2023-05-16T14:45:40;3.03;;;1.02;;
53881;SDS011;39794;55.782;37.452;2023-05-16T14:48:09;7.45;;;1.20;;
53881;SDS011;39794;55.782;37.452;2023-05-16T14:50:38;5.50;;;1.17;;
53881;SDS011;39794;55.782;37.452;2023-05-16T14:53:06;5.00;;;1.30;;